sensor_id;sensor_type;location;lat;lon;timestamp;P1;durP1;ratioP1;P2;durP2;ratioP2
57247;SDS011;55809;46.618;10.764;2023-12-22T00:00:23;0.00;;;0.00;;
57247;SDS011;55809;46.618;10.764;2023-12-22T00:02:50;0.35;;;0.10;;
57247;SDS011;55809;46.618;10.764;2023-12-22T00:05:18;0.47;;;0.20;;
57247;SDS011;55809;46.618;10.764;2023-12-22T00:07:47;0.17;;;0.00;;
57247;SDS011;55809;46.618;10.764;2023-12-22T00:10:13;0.00;;;0.00;;
57247;SDS011;55809;46.618;10.764;2023-12-22T00:12:42;1.45;;;0.00;;
57247;SDS011;55809;46.618;10.764;2023-12-22T00:17:42;0.00;;;0.00;;
57247;SDS011;55809;46.618;10.764;2023-12-22T00:20:13;0.00;;;0.00;;
57247;SDS011;55809;46.618;10.764;2023-12-22T00:22:41;0.70;;;0.00;;
57247;SDS011;55809;46.618;10.764;2023-12-22T00:25:08;0.00;;;0.00;;
57247;SDS011;55809;46.618;10.764;2023-12-22T00:27:36;0.10;;;0.00;;
57247;SDS011;55809;46.618;10.764;2023-12-22T00:30:03;0.47;;;0.00;;
57247;SDS011;55809;46.618;10.764;2023-12-22T00:32:34;0.28;;;0.00;;
57247;SDS011;55809;46.618;10.764;2023-12-22T00:35:03;0.00;;;0.00;;
57247;SDS011;55809;46.618;10.764;2023-12-22T00:37:32;0.00;;;0.00;;
57247;SDS011;55809;46.618;10.764;2023-12-22T00:40:01;0.00;;;0.00;;
57247;SDS011;55809;46.618;10.764;2023-12-22T00:42:37;0.15;;;0.05;;
57247;SDS011;55809;46.618;10.764;2023-12-22T00:45:06;0.00;;;0.00;;
57247;SDS011;55809;46.618;10.764;2023-12-22T00:47:36;0.00;;;0.00;;
57247;SDS011;55809;46.618;10.764;2023-12-22T00:52:35;0.00;;;0.00;;
57247;SDS011;55809;46.618;10.764;2023-12-22T00:55:03;1.45;;;0.00;;
57247;SDS011;55809;46.618;10.764;2023-12-22T00:57:32;0.38;;;0.00;;
57247;SDS011;55809;46.618;10.764;2023-12-22T01:00:00;0.10;;;0.00;;
57247;SDS011;55809;46.618;10.764;2023-12-22T01:04:59;0.32;;;0.00;;
57247;SDS011;55809;46.618;10.764;2023-12-22T01:07:27;1.33;;;0.10;;
57247;SDS011;55809;46.618;10.764;2023-12-22T01:09:55;1.20;;;0.05;;
57247;SDS011;55809;46.618;10.764;2023-12-22T01:12:27;0.15;;;0.00;;
57247;SDS011;55809;46.618;10.764;2023-12-22T01:14:56;0.00;;;0.00;;
57247;SDS011;55809;46.618;10.764;2023-12-22T01:17:24;0.55;;;0.03;;
57247;SDS011;55809;46.618;10.764;2023-12-22T01:20:01;0.00;;;0.00;;
57247;SDS011;55809;46.618;10.764;2023-12-22T01:22:28;0.10;;;0.00;;
57247;SDS011;55809;46.618;10.764;2023-12-22T01:24:59;0.00;;;0.00;;
57247;SDS011;55809;46.618;10.764;2023-12-22T01:27:27;0.10;;;0.10;;
57247;SDS011;55809;46.618;10.764;2023-12-22T01:29:55;0.22;;;0.05;;
57247;SDS011;55809;46.618;10.764;2023-12-22T01:32:21;0.00;;;0.00;;
57247;SDS011;55809;46.618;10.764;2023-12-22T01:34:49;0.00;;;0.00;;
57247;SDS011;55809;46.618;10.764;2023-12-22T01:37:19;0.75;;;0.00;;
57247;SDS011;55809;46.618;10.764;2023-12-22T01:39:49;0.00;;;0.00;;
57247;SDS011;55809;46.618;10.764;2023-12-22T01:42:20;0.77;;;0.10;;
57247;SDS011;55809;46.618;10.764;2023-12-22T01:44:48;0.00;;;0.00;;
57247;SDS011;55809;46.618;10.764;2023-12-22T01:47:16;0.00;;;0.00;;
57247;SDS011;55809;46.618;10.764;2023-12-22T01:49:44;0.00;;;0.00;;
57247;SDS011;55809;46.618;10.764;2023-12-22T01:52:12;0.55;;;0.10;;
57247;SDS011;55809;46.618;10.764;2023-12-22T01:54:42;0.15;;;0.00;;
57247;SDS011;55809;46.618;10.764;2023-12-22T01:57:10;0.00;;;0.00;;
57247;SDS011;55809;46.618;10.764;2023-12-22T01:59:42;0.52;;;0.00;;
57247;SDS011;55809;46.618;10.764;2023-12-22T02:02:11;0.10;;;0.00;;
57247;SDS011;55809;46.618;10.764;2023-12-22T02:04:40;1.02;;;0.10;;
57247;SDS011;55809;46.618;10.764;2023-12-22T02:07:08;0.03;;;0.00;;
57247;SDS011;55809;46.618;10.764;2023-12-22T02:09:39;0.20;;;0.00;;
57247;SDS011;55809;46.618;10.764;2023-12-22T02:12:12;1.10;;;0.03;;
57247;SDS011;55809;46.618;10.764;2023-12-22T02:14:43;0.00;;;0.00;;
57247;SDS011;55809;46.618;10.764;2023-12-22T02:17:11;1.13;;;0.10;;
57247;SDS011;55809;46.618;10.764;2023-12-22T02:19:48;0.00;;;0.00;;
57247;SDS011;55809;46.618;10.764;2023-12-22T02:22:39;0.55;;;0.00;;
57247;SDS011;55809;46.618;10.764;2023-12-22T02:25:08;0.00;;;0.00;;
57247;SDS011;55809;46.618;10.764;2023-12-22T02:27:38;0.00;;;0.00;;
57247;SDS011;55809;46.618;10.764;2023-12-22T02:30:12;0.00;;;0.00;;
57247;SDS011;55809;46.618;10.764;2023-12-22T02:32:48;0.00;;;0.00;;
57247;SDS011;55809;46.618;10.764;2023-12-22T02:35:19;0.10;;;0.00;;
57247;SDS011;55809;46.618;10.764;2023-12-22T02:37:52;0.75;;;0.00;;
57247;SDS011;55809;46.618;10.764;2023-12-22T02:40:25;0.55;;;0.00;;
57247;SDS011;55809;46.618;10.764;2023-12-22T02:42:54;0.10;;;0.00;;
57247;SDS011;55809;46.618;10.764;2023-12-22T02:45:22;0.00;;;0.00;;
57247;SDS011;55809;46.618;10.764;2023-12-22T02:47:50;0.15;;;0.00;;
57247;SDS011;55809;46.618;10.764;2023-12-22T02:50:26;0.00;;;0.00;;
57247;SDS011;55809;46.618;10.764;2023-12-22T02:52:56;0.10;;;0.00;;
57247;SDS011;55809;46.618;10.764;2023-12-22T02:55:25;0.10;;;0.10;;
57247;SDS011;55809;46.618;10.764;2023-12-22T02:57:53;0.70;;;0.03;;
57247;SDS011;55809;46.618;10.764;2023-12-22T03:00:21;0.00;;;0.00;;
57247;SDS011;55809;46.618;10.764;2023-12-22T03:02:49;0.57;;;0.17;;
57247;SDS011;55809;46.618;10.764;2023-12-22T03:05:17;0.00;;;0.00;;
57247;SDS011;55809;46.618;10.764;2023-12-22T03:07:45;1.17;;;0.10;;
57247;SDS011;55809;46.618;10.764;2023-12-22T03:10:25;0.43;;;0.00;;
57247;SDS011;55809;46.618;10.764;2023-12-22T03:12:52;0.28;;;0.00;;
57247;SDS011;55809;46.618;10.764;2023-12-22T03:15:24;0.10;;;0.00;;
57247;SDS011;55809;46.618;10.764;2023-12-22T03:17:51;0.57;;;0.08;;
57247;SDS011;55809;46.618;10.764;2023-12-22T03:20:20;0.00;;;0.00;;
57247;SDS011;55809;46.618;10.764;2023-12-22T03:22:46;0.40;;;0.00;;
57247;SDS011;55809;46.618;10.764;2023-12-22T03:25:17;0.10;;;0.00;;
57247;SDS011;55809;46.618;10.764;2023-12-22T03:27:44;0.00;;;0.00;;
57247;SDS011;55809;46.618;10.764;2023-12-22T03:30:13;0.10;;;0.00;;
57247;SDS011;55809;46.618;10.764;2023-12-22T03:32:41;0.73;;;0.00;;
57247;SDS011;55809;46.618;10.764;2023-12-22T03:35:10;0.45;;;0.10;;
57247;SDS011;55809;46.618;10.764;2023-12-22T03:37:39;0.00;;;0.00;;
57247;SDS011;55809;46.618;10.764;2023-12-22T03:40:10;0.00;;;0.00;;
57247;SDS011;55809;46.618;10.764;2023-12-22T03:42:40;0.00;;;0.00;;
57247;SDS011;55809;46.618;10.764;2023-12-22T03:45:11;0.32;;;0.00;;
57247;SDS011;55809;46.618;10.764;2023-12-22T03:47:37;0.45;;;0.00;;
57247;SDS011;55809;46.618;10.764;2023-12-22T03:50:07;0.00;;;0.00;;
57247;SDS011;55809;46.618;10.764;2023-12-22T03:52:34;0.00;;;0.00;;
57247;SDS011;55809;46.618;10.764;2023-12-22T03:55:03;0.20;;;0.00;;
57247;SDS011;55809;46.618;10.764;2023-12-22T03:57:30;1.00;;;0.10;;
57247;SDS011;55809;46.618;10.764;2023-12-22T04:00:04;0.35;;;0.00;;
57247;SDS011;55809;46.618;10.764;2023-12-22T04:02:31;0.80;;;0.00;;
57247;SDS011;55809;46.618;10.764;2023-12-22T04:04:59;0.47;;;0.00;;
57247;SDS011;55809;46.618;10.764;2023-12-22T04:07:29;0.10;;;0.00;;
57247;SDS011;55809;46.618;10.764;2023-12-22T04:09:57;0.38;;;0.10;;
57247;SDS011;55809;46.618;10.764;2023-12-22T04:12:26;0.00;;;0.00;;
57247;SDS011;55809;46.618;10.764;2023-12-22T04:14:53;0.75;;;0.00;;
57247;SDS011;55809;46.618;10.764;2023-12-22T04:17:25;0.35;;;0.00;;
57247;SDS011;55809;46.618;10.764;2023-12-22T04:19:52;0.00;;;0.00;;
57247;SDS011;55809;46.618;10.764;2023-12-22T04:22:21;0.10;;;0.05;;
57247;SDS011;55809;46.618;10.764;2023-12-22T04:24:50;0.17;;;0.00;;
57247;SDS011;55809;46.618;10.764;2023-12-22T04:27:18;0.00;;;0.00;;
57247;SDS011;55809;46.618;10.764;2023-12-22T04:29:46;0.00;;;0.00;;
57247;SDS011;55809;46.618;10.764;2023-12-22T04:32:14;1.13;;;0.10;;
57247;SDS011;55809;46.618;10.764;2023-12-22T04:34:44;0.20;;;0.00;;
57247;SDS011;55809;46.618;10.764;2023-12-22T04:37:12;0.43;;;0.00;;
57247;SDS011;55809;46.618;10.764;2023-12-22T04:39:40;0.00;;;0.00;;
57247;SDS011;55809;46.618;10.764;2023-12-22T04:42:10;0.00;;;0.00;;
57247;SDS011;55809;46.618;10.764;2023-12-22T04:44:38;0.43;;;0.05;;
57247;SDS011;55809;46.618;10.764;2023-12-22T04:47:06;0.00;;;0.00;;
57247;SDS011;55809;46.618;10.764;2023-12-22T04:49:34;0.00;;;0.00;;
57247;SDS011;55809;46.618;10.764;2023-12-22T04:52:07;0.60;;;0.10;;
57247;SDS011;55809;46.618;10.764;2023-12-22T04:54:35;0.55;;;0.10;;
57247;SDS011;55809;46.618;10.764;2023-12-22T04:57:03;0.75;;;0.20;;
57247;SDS011;55809;46.618;10.764;2023-12-22T04:59:43;0.00;;;0.00;;
57247;SDS011;55809;46.618;10.764;2023-12-22T05:02:14;0.22;;;0.00;;
57247;SDS011;55809;46.618;10.764;2023-12-22T05:04:41;0.00;;;0.00;;
57247;SDS011;55809;46.618;10.764;2023-12-22T05:07:11;0.00;;;0.00;;
57247;SDS011;55809;46.618;10.764;2023-12-22T05:09:40;1.85;;;0.73;;
57247;SDS011;55809;46.618;10.764;2023-12-22T05:12:10;5.68;;;2.78;;
57247;SDS011;55809;46.618;10.764;2023-12-22T05:14:38;4.18;;;1.92;;
57247;SDS011;55809;46.618;10.764;2023-12-22T05:17:06;3.92;;;1.63;;
57247;SDS011;55809;46.618;10.764;2023-12-22T05:19:34;1.50;;;1.05;;
57247;SDS011;55809;46.618;10.764;2023-12-22T05:22:02;0.60;;;0.50;;
57247;SDS011;55809;46.618;10.764;2023-12-22T05:24:34;0.57;;;0.30;;
57247;SDS011;55809;46.618;10.764;2023-12-22T05:27:04;0.30;;;0.10;;
57247;SDS011;55809;46.618;10.764;2023-12-22T05:29:41;0.17;;;0.00;;
57247;SDS011;55809;46.618;10.764;2023-12-22T05:32:08;0.10;;;0.10;;
57247;SDS011;55809;46.618;10.764;2023-12-22T05:34:35;0.00;;;0.00;;
57247;SDS011;55809;46.618;10.764;2023-12-22T05:37:02;0.38;;;0.10;;
57247;SDS011;55809;46.618;10.764;2023-12-22T05:39:29;0.00;;;0.00;;
57247;SDS011;55809;46.618;10.764;2023-12-22T05:41:58;0.32;;;0.32;;
57247;SDS011;55809;46.618;10.764;2023-12-22T05:44:25;0.50;;;0.50;;
57247;SDS011;55809;46.618;10.764;2023-12-22T05:46:54;1.48;;;0.32;;
57247;SDS011;55809;46.618;10.764;2023-12-22T05:49:21;0.75;;;0.17;;
57247;SDS011;55809;46.618;10.764;2023-12-22T05:51:48;0.00;;;0.00;;
57247;SDS011;55809;46.618;10.764;2023-12-22T05:54:16;3.42;;;0.35;;
57247;SDS011;55809;46.618;10.764;2023-12-22T05:56:44;1.20;;;0.13;;
57247;SDS011;55809;46.618;10.764;2023-12-22T05:59:12;0.15;;;0.10;;
57247;SDS011;55809;46.618;10.764;2023-12-22T06:01:39;0.08;;;0.00;;
57247;SDS011;55809;46.618;10.764;2023-12-22T06:04:06;0.00;;;0.00;;
57247;SDS011;55809;46.618;10.764;2023-12-22T06:06:33;0.00;;;0.00;;
57247;SDS011;55809;46.618;10.764;2023-12-22T06:09:00;1.10;;;0.10;;
57247;SDS011;55809;46.618;10.764;2023-12-22T06:11:27;0.65;;;0.20;;
57247;SDS011;55809;46.618;10.764;2023-12-22T06:13:53;0.08;;;0.00;;
57247;SDS011;55809;46.618;10.764;2023-12-22T06:16:22;0.00;;;0.00;;
57247;SDS011;55809;46.618;10.764;2023-12-22T06:18:49;0.05;;;0.00;;
57247;SDS011;55809;46.618;10.764;2023-12-22T06:21:16;0.00;;;0.00;;
57247;SDS011;55809;46.618;10.764;2023-12-22T06:23:43;1.27;;;0.10;;
57247;SDS011;55809;46.618;10.764;2023-12-22T06:26:10;0.93;;;0.08;;
57247;SDS011;55809;46.618;10.764;2023-12-22T06:28:37;1.63;;;0.08;;
57247;SDS011;55809;46.618;10.764;2023-12-22T06:31:05;0.10;;;0.00;;
57247;SDS011;55809;46.618;10.764;2023-12-22T06:33:33;0.08;;;0.00;;
57247;SDS011;55809;46.618;10.764;2023-12-22T06:36:00;1.38;;;0.10;;
57247;SDS011;55809;46.618;10.764;2023-12-22T06:38:27;1.35;;;0.10;;
57247;SDS011;55809;46.618;10.764;2023-12-22T06:40:54;0.05;;;0.03;;
57247;SDS011;55809;46.618;10.764;2023-12-22T06:43:21;0.32;;;0.10;;
57247;SDS011;55809;46.618;10.764;2023-12-22T06:45:49;0.22;;;0.00;;
57247;SDS011;55809;46.618;10.764;2023-12-22T06:48:20;1.42;;;0.30;;
57247;SDS011;55809;46.618;10.764;2023-12-22T06:50:48;1.00;;;0.10;;
57247;SDS011;55809;46.618;10.764;2023-12-22T06:53:15;1.45;;;0.50;;
57247;SDS011;55809;46.618;10.764;2023-12-22T06:55:42;2.53;;;0.50;;
57247;SDS011;55809;46.618;10.764;2023-12-22T06:58:09;2.90;;;1.20;;
57247;SDS011;55809;46.618;10.764;2023-12-22T07:00:36;2.72;;;0.85;;
57247;SDS011;55809;46.618;10.764;2023-12-22T07:03:04;2.90;;;1.10;;
57247;SDS011;55809;46.618;10.764;2023-12-22T07:05:33;2.45;;;0.60;;
57247;SDS011;55809;46.618;10.764;2023-12-22T07:08:12;2.72;;;0.95;;
57247;SDS011;55809;46.618;10.764;2023-12-22T07:10:39;1.35;;;0.60;;
57247;SDS011;55809;46.618;10.764;2023-12-22T07:13:06;0.88;;;0.10;;
57247;SDS011;55809;46.618;10.764;2023-12-22T07:15:32;0.60;;;0.30;;
57247;SDS011;55809;46.618;10.764;2023-12-22T07:18:00;0.40;;;0.20;;
57247;SDS011;55809;46.618;10.764;2023-12-22T07:20:27;0.63;;;0.10;;
57247;SDS011;55809;46.618;10.764;2023-12-22T07:22:54;0.30;;;0.22;;
57247;SDS011;55809;46.618;10.764;2023-12-22T07:25:22;0.40;;;0.20;;
57247;SDS011;55809;46.618;10.764;2023-12-22T07:27:49;1.15;;;0.40;;
57247;SDS011;55809;46.618;10.764;2023-12-22T07:30:16;1.95;;;0.20;;
57247;SDS011;55809;46.618;10.764;2023-12-22T07:32:44;0.60;;;0.30;;
57247;SDS011;55809;46.618;10.764;2023-12-22T07:35:17;0.88;;;0.25;;
57247;SDS011;55809;46.618;10.764;2023-12-22T07:37:43;0.93;;;0.50;;
57247;SDS011;55809;46.618;10.764;2023-12-22T07:40:11;2.28;;;0.80;;
57247;SDS011;55809;46.618;10.764;2023-12-22T07:42:39;0.28;;;0.17;;
57247;SDS011;55809;46.618;10.764;2023-12-22T07:45:07;0.98;;;0.22;;
57247;SDS011;55809;46.618;10.764;2023-12-22T07:47:34;1.50;;;0.20;;
57247;SDS011;55809;46.618;10.764;2023-12-22T07:50:02;0.63;;;0.10;;
57247;SDS011;55809;46.618;10.764;2023-12-22T07:52:33;0.10;;;0.05;;
57247;SDS011;55809;46.618;10.764;2023-12-22T07:55:03;0.50;;;0.08;;
57247;SDS011;55809;46.618;10.764;2023-12-22T07:57:31;0.00;;;0.00;;
57247;SDS011;55809;46.618;10.764;2023-12-22T08:00:00;0.00;;;0.00;;
57247;SDS011;55809;46.618;10.764;2023-12-22T08:02:29;0.17;;;0.08;;
57247;SDS011;55809;46.618;10.764;2023-12-22T08:04:56;0.50;;;0.05;;
57247;SDS011;55809;46.618;10.764;2023-12-22T08:07:24;2.00;;;0.10;;
57247;SDS011;55809;46.618;10.764;2023-12-22T08:09:51;0.30;;;0.10;;
57247;SDS011;55809;46.618;10.764;2023-12-22T08:12:18;0.00;;;0.00;;
57247;SDS011;55809;46.618;10.764;2023-12-22T08:14:45;0.10;;;0.10;;
57247;SDS011;55809;46.618;10.764;2023-12-22T08:17:14;0.28;;;0.10;;
57247;SDS011;55809;46.618;10.764;2023-12-22T08:19:41;2.38;;;1.00;;
57247;SDS011;55809;46.618;10.764;2023-12-22T08:22:12;3.28;;;0.52;;
57247;SDS011;55809;46.618;10.764;2023-12-22T08:24:40;0.68;;;0.40;;
57247;SDS011;55809;46.618;10.764;2023-12-22T08:27:07;1.20;;;0.70;;
57247;SDS011;55809;46.618;10.764;2023-12-22T08:29:34;2.80;;;1.10;;
57247;SDS011;55809;46.618;10.764;2023-12-22T08:32:01;0.43;;;0.30;;
57247;SDS011;55809;46.618;10.764;2023-12-22T08:34:31;0.63;;;0.38;;
57247;SDS011;55809;46.618;10.764;2023-12-22T08:36:58;0.65;;;0.28;;
57247;SDS011;55809;46.618;10.764;2023-12-22T08:39:26;0.82;;;0.40;;
57247;SDS011;55809;46.618;10.764;2023-12-22T08:41:53;0.38;;;0.20;;
57247;SDS011;55809;46.618;10.764;2023-12-22T08:44:20;1.38;;;0.38;;
57247;SDS011;55809;46.618;10.764;2023-12-22T08:46:47;1.45;;;0.32;;
57247;SDS011;55809;46.618;10.764;2023-12-22T08:49:14;0.57;;;0.20;;
57247;SDS011;55809;46.618;10.764;2023-12-22T08:51:42;0.15;;;0.15;;
57247;SDS011;55809;46.618;10.764;2023-12-22T08:54:09;0.30;;;0.20;;
57247;SDS011;55809;46.618;10.764;2023-12-22T08:56:36;0.10;;;0.10;;
57247;SDS011;55809;46.618;10.764;2023-12-22T08:59:03;0.43;;;0.10;;
57247;SDS011;55809;46.618;10.764;2023-12-22T09:01:30;0.22;;;0.10;;
57247;SDS011;55809;46.618;10.764;2023-12-22T09:03:57;8.00;;;3.30;;
57247;SDS011;55809;46.618;10.764;2023-12-22T09:06:24;2.40;;;0.93;;
57247;SDS011;55809;46.618;10.764;2023-12-22T09:08:53;1.63;;;0.55;;
57247;SDS011;55809;46.618;10.764;2023-12-22T09:11:20;2.00;;;0.70;;
57247;SDS011;55809;46.618;10.764;2023-12-22T09:13:47;0.98;;;0.50;;
57247;SDS011;55809;46.618;10.764;2023-12-22T09:16:14;0.68;;;0.30;;
57247;SDS011;55809;46.618;10.764;2023-12-22T09:18:47;1.10;;;0.50;;
57247;SDS011;55809;46.618;10.764;2023-12-22T09:21:15;1.55;;;0.80;;
57247;SDS011;55809;46.618;10.764;2023-12-22T09:23:43;1.02;;;0.63;;
57247;SDS011;55809;46.618;10.764;2023-12-22T09:26:13;2.50;;;0.77;;
57247;SDS011;55809;46.618;10.764;2023-12-22T09:28:40;3.33;;;0.90;;
57247;SDS011;55809;46.618;10.764;2023-12-22T09:31:07;1.63;;;0.70;;
57247;SDS011;55809;46.618;10.764;2023-12-22T09:33:35;0.57;;;0.22;;
57247;SDS011;55809;46.618;10.764;2023-12-22T09:36:03;1.60;;;0.30;;
57247;SDS011;55809;46.618;10.764;2023-12-22T09:38:30;1.23;;;0.20;;
57247;SDS011;55809;46.618;10.764;2023-12-22T09:40:58;0.57;;;0.20;;
57247;SDS011;55809;46.618;10.764;2023-12-22T09:43:28;0.93;;;0.17;;
57247;SDS011;55809;46.618;10.764;2023-12-22T09:45:55;0.15;;;0.10;;
57247;SDS011;55809;46.618;10.764;2023-12-22T09:48:23;0.20;;;0.20;;
57247;SDS011;55809;46.618;10.764;2023-12-22T09:50:53;0.55;;;0.30;;
57247;SDS011;55809;46.618;10.764;2023-12-22T09:53:21;0.40;;;0.20;;
57247;SDS011;55809;46.618;10.764;2023-12-22T09:55:50;0.80;;;0.20;;
57247;SDS011;55809;46.618;10.764;2023-12-22T09:58:18;0.47;;;0.10;;
57247;SDS011;55809;46.618;10.764;2023-12-22T10:00:47;0.55;;;0.30;;
57247;SDS011;55809;46.618;10.764;2023-12-22T10:05:45;1.08;;;0.40;;
57247;SDS011;55809;46.618;10.764;2023-12-22T10:08:14;0.60;;;0.50;;
57247;SDS011;55809;46.618;10.764;2023-12-22T10:10:43;2.17;;;0.40;;
57247;SDS011;55809;46.618;10.764;2023-12-22T10:13:15;1.55;;;0.30;;
57247;SDS011;55809;46.618;10.764;2023-12-22T10:15:44;1.13;;;0.30;;
57247;SDS011;55809;46.618;10.764;2023-12-22T10:21:00;0.98;;;0.20;;
57247;SDS011;55809;46.618;10.764;2023-12-22T10:23:36;0.68;;;0.15;;
57247;SDS011;55809;46.618;10.764;2023-12-22T10:26:05;0.35;;;0.15;;
57247;SDS011;55809;46.618;10.764;2023-12-22T10:28:47;1.00;;;0.30;;
57247;SDS011;55809;46.618;10.764;2023-12-22T10:31:16;1.17;;;0.20;;
57247;SDS011;55809;46.618;10.764;2023-12-22T10:33:46;0.43;;;0.10;;
57247;SDS011;55809;46.618;10.764;2023-12-22T10:36:16;2.35;;;0.50;;
57247;SDS011;55809;46.618;10.764;2023-12-22T10:38:45;0.85;;;0.20;;
57247;SDS011;55809;46.618;10.764;2023-12-22T10:41:12;0.40;;;0.20;;
57247;SDS011;55809;46.618;10.764;2023-12-22T10:43:39;0.30;;;0.10;;
57247;SDS011;55809;46.618;10.764;2023-12-22T10:46:06;0.20;;;0.15;;
57247;SDS011;55809;46.618;10.764;2023-12-22T10:48:36;0.65;;;0.17;;
57247;SDS011;55809;46.618;10.764;2023-12-22T10:51:04;0.40;;;0.10;;
57247;SDS011;55809;46.618;10.764;2023-12-22T10:53:36;1.27;;;0.20;;
57247;SDS011;55809;46.618;10.764;2023-12-22T10:56:07;0.28;;;0.20;;
57247;SDS011;55809;46.618;10.764;2023-12-22T10:58:36;0.65;;;0.15;;
57247;SDS011;55809;46.618;10.764;2023-12-22T11:01:09;0.55;;;0.17;;
57247;SDS011;55809;46.618;10.764;2023-12-22T11:03:39;0.35;;;0.10;;
57247;SDS011;55809;46.618;10.764;2023-12-22T11:06:18;0.32;;;0.05;;
57247;SDS011;55809;46.618;10.764;2023-12-22T11:08:49;0.65;;;0.28;;
57247;SDS011;55809;46.618;10.764;2023-12-22T11:11:33;0.32;;;0.20;;
57247;SDS011;55809;46.618;10.764;2023-12-22T11:14:03;0.30;;;0.20;;
57247;SDS011;55809;46.618;10.764;2023-12-22T11:16:33;3.80;;;0.32;;
57247;SDS011;55809;46.618;10.764;2023-12-22T11:19:01;0.38;;;0.20;;
57247;SDS011;55809;46.618;10.764;2023-12-22T11:21:30;0.90;;;0.40;;
57247;SDS011;55809;46.618;10.764;2023-12-22T11:23:57;0.90;;;0.40;;
57247;SDS011;55809;46.618;10.764;2023-12-22T11:26:25;2.95;;;0.60;;
57247;SDS011;55809;46.618;10.764;2023-12-22T11:28:52;0.30;;;0.30;;
57247;SDS011;55809;46.618;10.764;2023-12-22T11:31:19;0.40;;;0.30;;
57247;SDS011;55809;46.618;10.764;2023-12-22T11:33:48;0.43;;;0.20;;
57247;SDS011;55809;46.618;10.764;2023-12-22T11:36:18;0.88;;;0.28;;
57247;SDS011;55809;46.618;10.764;2023-12-22T11:38:50;0.68;;;0.20;;
57247;SDS011;55809;46.618;10.764;2023-12-22T11:41:20;0.17;;;0.15;;
57247;SDS011;55809;46.618;10.764;2023-12-22T11:43:52;0.30;;;0.30;;
57247;SDS011;55809;46.618;10.764;2023-12-22T11:46:23;0.28;;;0.20;;
57247;SDS011;55809;46.618;10.764;2023-12-22T11:48:53;0.98;;;0.10;;
57247;SDS011;55809;46.618;10.764;2023-12-22T11:51:21;1.45;;;0.00;;
57247;SDS011;55809;46.618;10.764;2023-12-22T11:53:57;0.10;;;0.00;;
57247;SDS011;55809;46.618;10.764;2023-12-22T11:56:28;0.00;;;0.00;;
57247;SDS011;55809;46.618;10.764;2023-12-22T11:59:04;0.43;;;0.10;;
57247;SDS011;55809;46.618;10.764;2023-12-22T12:01:34;0.52;;;0.10;;
57247;SDS011;55809;46.618;10.764;2023-12-22T12:04:07;0.70;;;0.10;;
57247;SDS011;55809;46.618;10.764;2023-12-22T12:06:38;0.20;;;0.00;;
57247;SDS011;55809;46.618;10.764;2023-12-22T12:09:07;0.13;;;0.00;;
57247;SDS011;55809;46.618;10.764;2023-12-22T12:14:46;1.95;;;0.60;;
57247;SDS011;55809;46.618;10.764;2023-12-22T12:17:18;2.70;;;1.23;;
57247;SDS011;55809;46.618;10.764;2023-12-22T12:19:49;1.88;;;0.70;;
57247;SDS011;55809;46.618;10.764;2023-12-22T12:22:18;1.48;;;0.63;;
57247;SDS011;55809;46.618;10.764;2023-12-22T12:24:59;4.30;;;1.60;;
57247;SDS011;55809;46.618;10.764;2023-12-22T12:27:29;4.40;;;1.55;;
57247;SDS011;55809;46.618;10.764;2023-12-22T12:30:11;3.83;;;1.13;;
57247;SDS011;55809;46.618;10.764;2023-12-22T12:32:43;8.73;;;3.53;;
57247;SDS011;55809;46.618;10.764;2023-12-22T12:35:11;6.82;;;2.35;;
57247;SDS011;55809;46.618;10.764;2023-12-22T12:37:38;6.75;;;1.88;;
57247;SDS011;55809;46.618;10.764;2023-12-22T12:40:09;5.40;;;1.75;;
57247;SDS011;55809;46.618;10.764;2023-12-22T12:42:37;6.32;;;1.90;;
57247;SDS011;55809;46.618;10.764;2023-12-22T12:45:05;7.75;;;1.77;;
57247;SDS011;55809;46.618;10.764;2023-12-22T12:47:33;7.78;;;1.95;;
57247;SDS011;55809;46.618;10.764;2023-12-22T12:50:00;5.90;;;1.80;;
57247;SDS011;55809;46.618;10.764;2023-12-22T12:52:26;3.25;;;1.00;;
57247;SDS011;55809;46.618;10.764;2023-12-22T12:54:54;2.60;;;0.90;;
57247;SDS011;55809;46.618;10.764;2023-12-22T12:57:26;0.82;;;0.40;;
57247;SDS011;55809;46.618;10.764;2023-12-22T12:59:53;0.57;;;0.32;;
57247;SDS011;55809;46.618;10.764;2023-12-22T13:02:21;0.45;;;0.25;;
57247;SDS011;55809;46.618;10.764;2023-12-22T13:04:49;1.40;;;0.50;;
57247;SDS011;55809;46.618;10.764;2023-12-22T13:07:25;1.38;;;0.60;;
57247;SDS011;55809;46.618;10.764;2023-12-22T13:09:52;0.57;;;0.47;;
57247;SDS011;55809;46.618;10.764;2023-12-22T13:12:22;0.50;;;0.30;;
57247;SDS011;55809;46.618;10.764;2023-12-22T13:14:51;0.10;;;0.10;;
57247;SDS011;55809;46.618;10.764;2023-12-22T13:17:18;0.20;;;0.00;;
57247;SDS011;55809;46.618;10.764;2023-12-22T13:19:46;0.30;;;0.30;;
57247;SDS011;55809;46.618;10.764;2023-12-22T13:22:15;0.20;;;0.20;;
57247;SDS011;55809;46.618;10.764;2023-12-22T13:24:43;0.10;;;0.00;;
57247;SDS011;55809;46.618;10.764;2023-12-22T13:27:21;0.10;;;0.10;;
57247;SDS011;55809;46.618;10.764;2023-12-22T13:29:48;0.00;;;0.00;;
57247;SDS011;55809;46.618;10.764;2023-12-22T13:32:19;0.00;;;0.00;;
57247;SDS011;55809;46.618;10.764;2023-12-22T13:34:50;1.58;;;0.63;;
57247;SDS011;55809;46.618;10.764;2023-12-22T13:37:19;2.92;;;1.15;;
57247;SDS011;55809;46.618;10.764;2023-12-22T13:39:57;5.25;;;1.73;;
57247;SDS011;55809;46.618;10.764;2023-12-22T13:42:25;0.45;;;0.30;;
57247;SDS011;55809;46.618;10.764;2023-12-22T13:44:52;0.45;;;0.20;;
57247;SDS011;55809;46.618;10.764;2023-12-22T13:47:27;0.90;;;0.32;;
57247;SDS011;55809;46.618;10.764;2023-12-22T13:49:54;0.98;;;0.40;;
57247;SDS011;55809;46.618;10.764;2023-12-22T13:52:27;2.42;;;1.02;;
57247;SDS011;55809;46.618;10.764;2023-12-22T13:54:58;0.03;;;0.03;;
57247;SDS011;55809;46.618;10.764;2023-12-22T13:57:27;0.10;;;0.10;;
57247;SDS011;55809;46.618;10.764;2023-12-22T13:59:55;0.32;;;0.30;;
57247;SDS011;55809;46.618;10.764;2023-12-22T14:02:27;0.13;;;0.10;;
57247;SDS011;55809;46.618;10.764;2023-12-22T14:04:55;0.40;;;0.32;;
57247;SDS011;55809;46.618;10.764;2023-12-22T14:07:23;0.00;;;0.00;;
57247;SDS011;55809;46.618;10.764;2023-12-22T14:09:53;0.00;;;0.00;;
57247;SDS011;55809;46.618;10.764;2023-12-22T14:12:22;0.00;;;0.00;;
57247;SDS011;55809;46.618;10.764;2023-12-22T14:14:50;0.00;;;0.00;;
57247;SDS011;55809;46.618;10.764;2023-12-22T14:17:18;0.00;;;0.00;;
57247;SDS011;55809;46.618;10.764;2023-12-22T14:19:48;0.00;;;0.00;;
57247;SDS011;55809;46.618;10.764;2023-12-22T14:22:16;0.00;;;0.00;;
57247;SDS011;55809;46.618;10.764;2023-12-22T14:24:44;0.32;;;0.00;;
57247;SDS011;55809;46.618;10.764;2023-12-22T14:27:13;1.17;;;0.00;;
57247;SDS011;55809;46.618;10.764;2023-12-22T14:29:44;0.00;;;0.00;;
57247;SDS011;55809;46.618;10.764;2023-12-22T14:32:14;0.00;;;0.00;;
57247;SDS011;55809;46.618;10.764;2023-12-22T14:34:45;0.00;;;0.00;;
57247;SDS011;55809;46.618;10.764;2023-12-22T14:39:43;0.10;;;0.00;;
57247;SDS011;55809;46.618;10.764;2023-12-22T14:42:11;0.00;;;0.00;;
57247;SDS011;55809;46.618;10.764;2023-12-22T14:44:39;0.38;;;0.00;;
57247;SDS011;55809;46.618;10.764;2023-12-22T14:47:09;0.00;;;0.00;;
57247;SDS011;55809;46.618;10.764;2023-12-22T14:49:37;0.00;;;0.00;;
57247;SDS011;55809;46.618;10.764;2023-12-22T14:52:07;0.68;;;0.10;;
57247;SDS011;55809;46.618;10.764;2023-12-22T14:54:37;0.60;;;0.30;;
57247;SDS011;55809;46.618;10.764;2023-12-22T14:57:05;0.32;;;0.00;;
57247;SDS011;55809;46.618;10.764;2023-12-22T14:59:34;0.05;;;0.00;;
57247;SDS011;55809;46.618;10.764;2023-12-22T15:02:02;0.08;;;0.00;;